createdAt,value
2023-05-15T00:00:14.596Z,13.80
2023-05-15T00:02:41.313Z,15.07
2023-05-15T00:05:08.395Z,18.17
2023-05-15T00:07:36.076Z,18.60
2023-05-15T00:12:37.456Z,16.50
2023-05-15T00:15:04.694Z,13.70
2023-05-15T00:17:34.196Z,15.60
2023-05-15T00:20:00.822Z,17.80
2023-05-15T00:22:27.436Z,18.13
2023-05-15T00:24:54.069Z,18.40
2023-05-15T00:27:20.633Z,19.20
2023-05-15T00:29:47.206Z,19.20
2023-05-15T00:32:13.896Z,18.23
2023-05-15T00:34:40.504Z,22.00
2023-05-15T00:37:08.428Z,18.60
2023-05-15T00:39:36.109Z,18.00
2023-05-15T00:42:04.227Z,20.33
2023-05-15T00:44:34.364Z,18.57
2023-05-15T00:47:02.269Z,18.30
2023-05-15T00:49:29.769Z,17.87
2023-05-15T00:52:01.886Z,20.30
2023-05-15T00:54:28.506Z,22.57
2023-05-15T00:56:59.177Z,24.63
2023-05-15T00:59:27.968Z,19.57
2023-05-15T01:01:54.721Z,19.33
2023-05-15T01:04:21.732Z,19.13
2023-05-15T01:06:48.951Z,19.30
2023-05-15T01:09:15.941Z,18.17
2023-05-15T01:11:43.403Z,18.47
2023-05-15T01:14:10.000Z,16.40
2023-05-15T01:16:36.752Z,18.70
2023-05-15T01:19:04.856Z,20.67
2023-05-15T01:22:11.376Z,18.93
2023-05-15T01:25:09.240Z,13.33
2023-05-15T01:27:58.623Z,19.10
2023-05-15T01:30:32.219Z,14.33
2023-05-15T01:33:16.932Z,20.03
2023-05-15T01:36:07.634Z,17.70
2023-05-15T01:38:42.432Z,18.93
2023-05-15T01:41:11.654Z,15.00
2023-05-15T01:43:41.473Z,17.93
2023-05-15T01:46:09.274Z,17.97
2023-05-15T01:48:37.252Z,17.17
2023-05-15T01:51:06.762Z,17.40
2023-05-15T01:53:34.825Z,22.53
2023-05-15T01:56:03.661Z,15.50
2023-05-15T01:58:32.148Z,15.20
2023-05-15T02:01:00.082Z,18.10
2023-05-15T02:03:27.024Z,16.63
2023-05-15T02:05:56.452Z,16.37
2023-05-15T02:08:25.622Z,18.27
2023-05-15T02:10:52.952Z,13.97
2023-05-15T02:13:21.206Z,18.80
2023-05-15T02:15:48.150Z,18.03
2023-05-15T02:18:14.882Z,15.90
2023-05-15T02:20:41.502Z,17.87
2023-05-15T02:23:08.105Z,16.83
2023-05-15T02:25:50.003Z,15.50
2023-05-15T02:28:26.859Z,15.40
2023-05-15T02:31:01.511Z,15.57
2023-05-15T02:33:46.922Z,18.73
2023-05-15T02:36:29.532Z,16.30
2023-05-15T02:38:58.355Z,19.17
2023-05-15T02:41:25.366Z,17.43
2023-05-15T02:43:55.201Z,17.50
2023-05-15T02:46:25.070Z,18.63
2023-05-15T02:48:52.337Z,17.77
2023-05-15T02:51:19.053Z,19.17
2023-05-15T02:53:45.820Z,20.40
2023-05-15T02:56:12.523Z,18.50
2023-05-15T02:58:41.554Z,17.93
2023-05-15T03:01:08.186Z,19.27
2023-05-15T03:03:37.682Z,20.57
2023-05-15T03:06:04.357Z,24.30
2023-05-15T03:08:30.924Z,23.93
2023-05-15T03:10:58.161Z,26.87
2023-05-15T03:13:25.170Z,30.90
2023-05-15T03:15:53.319Z,30.77
2023-05-15T03:18:19.996Z,36.17
2023-05-15T03:20:49.045Z,36.93
2023-05-15T03:23:15.977Z,40.93
2023-05-15T03:25:42.570Z,41.63
2023-05-15T03:28:09.363Z,50.00
2023-05-15T03:30:36.048Z,50.93
2023-05-15T03:33:03.946Z,51.47
2023-05-15T03:35:32.185Z,50.67
2023-05-15T03:37:58.805Z,55.73
2023-05-15T03:40:25.440Z,58.07
2023-05-15T03:42:53.417Z,59.47
2023-05-15T03:45:20.898Z,57.70
2023-05-15T03:50:16.068Z,56.60
2023-05-15T03:52:42.792Z,56.87
2023-05-15T03:55:09.527Z,61.97
2023-05-15T03:57:36.529Z,55.40
2023-05-15T04:00:07.313Z,59.77
2023-05-15T04:02:33.984Z,57.93
2023-05-15T04:05:00.666Z,61.50
2023-05-15T04:07:27.234Z,58.27
2023-05-15T04:09:53.786Z,63.97
2023-05-15T04:12:20.459Z,60.63
2023-05-15T04:14:47.028Z,63.40
2023-05-15T04:17:13.619Z,65.67
2023-05-15T04:19:41.136Z,61.53
2023-05-15T04:22:09.153Z,59.13
2023-05-15T04:24:35.847Z,56.43
2023-05-15T04:27:02.480Z,56.03
2023-05-15T04:29:29.204Z,64.40
2023-05-15T04:31:55.814Z,54.27
2023-05-15T04:34:22.528Z,53.93
2023-05-15T04:36:49.822Z,59.80
2023-05-15T04:39:16.374Z,50.60
2023-05-15T04:41:43.260Z,57.10
2023-05-15T04:44:09.948Z,54.10
2023-05-15T04:46:37.403Z,56.47
2023-05-15T04:49:04.188Z,61.27
2023-05-15T04:51:30.898Z,56.63
2023-05-15T04:53:57.490Z,63.43
2023-05-15T04:56:24.036Z,61.97
2023-05-15T04:58:50.565Z,65.43
2023-05-15T05:01:17.152Z,65.33
2023-05-15T05:03:43.796Z,58.13
2023-05-15T05:06:10.439Z,66.50
2023-05-15T05:08:37.008Z,56.87
2023-05-15T05:11:03.844Z,55.33
2023-05-15T05:13:30.518Z,53.70
2023-05-15T05:15:57.083Z,54.93
2023-05-15T05:18:23.731Z,54.40
2023-05-15T05:20:50.594Z,53.50
2023-05-15T05:23:18.172Z,56.67
2023-05-15T05:25:44.730Z,55.20
2023-05-15T05:28:11.328Z,53.63
2023-05-15T05:30:37.903Z,61.90
2023-05-15T05:33:04.606Z,53.00
2023-05-15T05:35:31.449Z,59.60
2023-05-15T05:37:58.279Z,58.20
2023-05-15T05:40:24.906Z,56.77
2023-05-15T05:42:51.647Z,57.23
2023-05-15T05:45:18.210Z,58.67
2023-05-15T05:47:44.805Z,60.60
2023-05-15T05:50:11.454Z,71.10
2023-05-15T05:52:38.044Z,64.30
2023-05-15T05:55:05.056Z,77.43
2023-05-15T05:57:32.063Z,78.60
2023-05-15T05:59:58.951Z,69.43
2023-05-15T06:02:25.578Z,62.73
2023-05-15T06:04:52.622Z,61.23
2023-05-15T06:07:19.306Z,57.37
2023-05-15T06:09:48.222Z,61.80
2023-05-15T06:12:14.781Z,65.37
2023-05-15T06:14:41.413Z,67.73
2023-05-15T06:17:08.198Z,65.83
2023-05-15T06:19:34.953Z,59.47
2023-05-15T06:22:01.584Z,69.80
2023-05-15T06:24:28.160Z,58.83
2023-05-15T06:26:54.804Z,67.70
2023-05-15T06:29:21.517Z,67.10
2023-05-15T06:31:48.136Z,65.77
2023-05-15T06:34:14.764Z,68.10
2023-05-15T06:36:41.380Z,73.07
2023-05-15T06:39:10.685Z,68.53
2023-05-15T06:41:37.914Z,67.73
2023-05-15T06:44:05.067Z,78.43
2023-05-15T06:46:31.651Z,74.13
2023-05-15T06:48:58.237Z,80.47
2023-05-15T06:51:24.887Z,72.43
2023-05-15T06:53:51.515Z,71.47
2023-05-15T06:56:18.112Z,60.20
2023-05-15T06:58:44.725Z,70.50
2023-05-15T07:01:11.319Z,63.70
2023-05-15T07:03:37.962Z,58.77
2023-05-15T07:06:04.556Z,51.13
2023-05-15T07:08:31.207Z,47.00
2023-05-15T07:10:57.766Z,52.00
2023-05-15T07:13:24.326Z,48.80
2023-05-15T07:15:50.980Z,46.60
2023-05-15T07:18:18.182Z,46.17
2023-05-15T07:20:45.001Z,45.50
2023-05-15T07:23:11.603Z,46.00
2023-05-15T07:25:38.282Z,40.60
2023-05-15T07:28:05.018Z,42.37
2023-05-15T07:30:31.583Z,37.23
2023-05-15T07:32:58.201Z,39.00
2023-05-15T07:35:25.871Z,41.50
2023-05-15T07:37:52.610Z,44.87
2023-05-15T07:40:19.232Z,43.43
2023-05-15T07:42:45.851Z,45.77
2023-05-15T07:45:12.806Z,39.90
2023-05-15T07:47:46.647Z,40.20
2023-05-15T07:50:14.149Z,36.60
2023-05-15T07:52:42.614Z,40.73
2023-05-15T07:55:12.603Z,35.80
2023-05-15T07:57:40.078Z,41.93
2023-05-15T08:00:13.396Z,33.57
2023-05-15T08:02:40.768Z,30.77
2023-05-15T08:05:07.938Z,32.87
2023-05-15T08:07:35.544Z,28.90
2023-05-15T08:10:05.846Z,27.70
2023-05-15T08:12:32.504Z,36.10
2023-05-15T08:14:59.080Z,32.80
2023-05-15T08:17:26.039Z,31.17
2023-05-15T08:19:53.095Z,27.30
2023-05-15T08:22:19.825Z,27.17
2023-05-15T08:24:46.418Z,28.33
2023-05-15T08:27:13.519Z,27.03
2023-05-15T08:29:40.287Z,23.00
2023-05-15T08:32:08.687Z,26.03
2023-05-15T08:34:35.275Z,33.13
2023-05-15T08:37:01.897Z,21.70
2023-05-15T08:39:28.779Z,22.03
2023-05-15T08:42:09.715Z,23.03
2023-05-15T08:44:37.002Z,19.27
2023-05-15T08:47:05.950Z,21.97
2023-05-15T08:49:47.849Z,21.00
2023-05-15T08:52:16.104Z,20.10
2023-05-15T08:54:43.060Z,20.30
2023-05-15T08:57:10.698Z,20.13
2023-05-15T08:59:38.120Z,21.13
2023-05-15T09:02:05.174Z,23.03
2023-05-15T09:04:32.353Z,21.03
2023-05-15T09:07:00.850Z,21.07
2023-05-15T09:09:29.415Z,20.40
2023-05-15T09:11:56.128Z,18.03
2023-05-15T09:14:22.696Z,18.30
2023-05-15T09:16:50.931Z,20.30
2023-05-15T09:19:21.186Z,16.10
2023-05-15T09:21:48.211Z,17.53
2023-05-15T09:24:16.878Z,19.70
2023-05-15T09:26:48.193Z,18.07
2023-05-15T09:29:18.818Z,18.83
2023-05-15T09:31:48.536Z,15.90
2023-05-15T09:34:15.300Z,16.60
2023-05-15T09:36:47.367Z,17.50
2023-05-15T09:39:13.951Z,15.80
2023-05-15T09:41:43.550Z,15.73
2023-05-15T09:44:21.572Z,15.07
2023-05-15T09:46:49.042Z,15.30
2023-05-15T09:49:15.813Z,15.00
2023-05-15T09:51:44.424Z,13.47
2023-05-15T09:54:16.315Z,13.80
2023-05-15T09:56:47.466Z,12.60
2023-05-15T09:59:21.441Z,13.60
2023-05-15T10:01:52.670Z,13.10
2023-05-15T10:04:19.312Z,16.23
2023-05-15T10:06:47.981Z,14.97
2023-05-15T10:09:15.184Z,15.73
2023-05-15T10:11:51.247Z,17.27
2023-05-15T10:14:19.910Z,16.93
2023-05-15T10:16:46.464Z,16.80
2023-05-15T10:19:13.631Z,14.00
2023-05-15T10:21:41.812Z,15.63
2023-05-15T10:24:08.746Z,15.93
2023-05-15T10:26:42.594Z,13.10
2023-05-15T10:29:14.507Z,11.20
2023-05-15T10:31:41.983Z,10.73
2023-05-15T10:34:10.116Z,12.23
2023-05-15T10:36:38.639Z,14.40
2023-05-15T10:39:07.240Z,15.40
2023-05-15T10:41:37.125Z,12.40
2023-05-15T10:44:03.796Z,13.00
2023-05-15T10:46:33.653Z,10.87
2023-05-15T10:49:01.675Z,11.83
2023-05-15T10:51:29.996Z,13.47
2023-05-15T10:53:57.668Z,10.20
2023-05-15T10:56:31.568Z,8.10
2023-05-15T10:58:58.571Z,9.73
2023-05-15T11:01:33.235Z,9.10
2023-05-15T11:04:14.795Z,8.53
2023-05-15T11:06:46.439Z,10.70
2023-05-15T11:09:27.184Z,8.23
2023-05-15T11:12:00.159Z,8.87
2023-05-15T11:14:28.420Z,12.27
2023-05-15T11:16:55.312Z,14.63
2023-05-15T11:19:35.863Z,12.70
2023-05-15T11:22:22.872Z,8.30
2023-05-15T11:24:53.666Z,7.67
2023-05-15T11:27:23.528Z,13.33
2023-05-15T11:30:08.578Z,10.17
2023-05-15T11:32:51.601Z,8.03
2023-05-15T11:35:19.601Z,9.10
2023-05-15T11:37:48.904Z,11.40
2023-05-15T11:40:56.390Z,8.40
2023-05-15T11:43:30.897Z,9.90
2023-05-15T11:45:58.382Z,13.40
2023-05-15T11:48:37.266Z,9.30
2023-05-15T11:51:05.535Z,10.97
2023-05-15T11:53:33.644Z,7.90
2023-05-15T11:56:00.775Z,8.70
2023-05-15T11:58:27.404Z,5.40
2023-05-15T12:00:54.283Z,10.10
2023-05-15T12:03:25.134Z,7.10
2023-05-15T12:05:59.017Z,6.93
2023-05-15T12:08:31.104Z,5.60
2023-05-15T12:10:59.035Z,6.77
2023-05-15T12:13:25.735Z,6.33
2023-05-15T12:15:53.903Z,8.40
2023-05-15T12:18:20.464Z,6.43
2023-05-15T12:20:47.065Z,6.90
2023-05-15T12:23:17.714Z,5.60
2023-05-15T12:25:46.824Z,5.60
2023-05-15T12:28:14.398Z,7.83
2023-05-15T12:30:42.822Z,5.80
2023-05-15T12:33:10.764Z,6.37
2023-05-15T12:35:42.649Z,7.30
2023-05-15T12:38:13.803Z,5.90
2023-05-15T12:40:40.738Z,8.60
2023-05-15T12:43:08.068Z,8.90
2023-05-15T12:45:38.145Z,9.07
2023-05-15T12:48:05.731Z,8.50
2023-05-15T12:50:34.063Z,6.20
2023-05-15T12:53:04.673Z,7.80
2023-05-15T12:55:33.572Z,6.83
2023-05-15T12:58:04.060Z,7.90
2023-05-15T13:00:31.957Z,7.27
2023-05-15T13:03:02.354Z,5.80
2023-05-15T13:05:32.334Z,5.40
2023-05-15T13:08:08.857Z,5.23
2023-05-15T13:10:37.190Z,9.90
2023-05-15T13:13:03.845Z,8.37
2023-05-15T13:15:43.909Z,7.93
2023-05-15T13:18:15.508Z,6.93
2023-05-15T13:20:51.624Z,8.67
2023-05-15T13:23:21.141Z,9.43
2023-05-15T13:25:47.725Z,9.97
2023-05-15T13:28:14.446Z,9.50
2023-05-15T13:30:42.119Z,8.00
2023-05-15T13:33:10.527Z,7.83
2023-05-15T13:35:38.145Z,9.73
2023-05-15T13:38:04.784Z,8.43
2023-05-15T13:40:37.893Z,8.70
2023-05-15T13:43:06.383Z,8.90
2023-05-15T13:45:33.134Z,11.83
2023-05-15T13:48:00.019Z,7.30
2023-05-15T13:50:27.018Z,9.30
2023-05-15T13:52:54.408Z,9.07
2023-05-15T13:55:22.958Z,10.13
2023-05-15T13:57:49.953Z,6.87
2023-05-15T14:00:17.253Z,9.03
2023-05-15T14:02:44.749Z,7.07
2023-05-15T14:05:13.479Z,10.17
2023-05-15T14:07:41.429Z,13.27
2023-05-15T14:10:08.662Z,22.07
2023-05-15T14:12:37.429Z,21.23
2023-05-15T14:15:04.534Z,18.50
2023-05-15T14:17:31.271Z,20.70
2023-05-15T14:19:57.896Z,20.10
2023-05-15T14:22:24.970Z,18.93
2023-05-15T14:24:52.767Z,16.07
2023-05-15T14:27:19.680Z,16.57
2023-05-15T14:29:47.208Z,15.57
2023-05-15T14:32:13.943Z,16.10
2023-05-15T14:34:40.603Z,16.13
2023-05-15T14:37:07.217Z,18.90
2023-05-15T14:39:33.776Z,14.43
2023-05-15T14:42:00.380Z,11.90
2023-05-15T14:44:26.920Z,10.27
2023-05-15T14:47:10.796Z,15.97
2023-05-15T14:49:37.717Z,9.80
2023-05-15T14:52:07.002Z,11.27
2023-05-15T14:54:34.002Z,13.33
2023-05-15T14:57:00.697Z,10.30
2023-05-15T14:59:28.120Z,11.50
2023-05-15T15:01:54.790Z,11.73
2023-05-15T15:04:21.627Z,16.23
2023-05-15T15:06:48.252Z,10.03
2023-05-15T15:09:14.924Z,10.93
2023-05-15T15:11:42.374Z,13.70
2023-05-15T15:14:09.003Z,12.23
2023-05-15T15:16:35.622Z,9.23
2023-05-15T15:19:02.383Z,12.70
2023-05-15T15:21:28.982Z,12.00
2023-05-15T15:23:56.304Z,9.87
2023-05-15T15:26:22.872Z,12.60
2023-05-15T15:28:49.436Z,10.80
2023-05-15T15:31:16.199Z,10.73
2023-05-15T15:33:42.824Z,11.07
2023-05-15T15:36:09.435Z,8.93
2023-05-15T15:38:45.879Z,7.10
2023-05-15T15:41:12.481Z,8.20
2023-05-15T15:43:39.082Z,7.80
2023-05-15T15:46:08.315Z,5.00
2023-05-15T15:48:34.927Z,5.37
2023-05-15T15:51:01.474Z,9.57
2023-05-15T15:53:28.034Z,10.73
2023-05-15T15:55:54.639Z,8.40
2023-05-15T15:58:21.335Z,8.83
2023-05-15T16:00:47.901Z,9.23
2023-05-15T16:03:14.567Z,7.60
2023-05-15T16:05:41.314Z,8.27
2023-05-15T16:08:07.922Z,8.27
2023-05-15T16:10:34.514Z,10.20
2023-05-15T16:13:01.101Z,8.07
2023-05-15T16:15:27.744Z,7.90
2023-05-15T16:17:55.145Z,7.70
2023-05-15T16:20:22.452Z,7.47
2023-05-15T16:22:49.048Z,7.73
2023-05-15T16:25:15.638Z,3.80
2023-05-15T16:27:42.225Z,3.30
2023-05-15T16:30:10.808Z,5.70
2023-05-15T16:32:37.516Z,11.33
2023-05-15T16:35:04.527Z,5.13
2023-05-15T16:37:31.152Z,9.20
2023-05-15T16:39:57.768Z,10.70
2023-05-15T16:42:24.461Z,17.50
2023-05-15T16:44:51.347Z,12.20
2023-05-15T16:47:17.910Z,14.03
2023-05-15T16:49:45.345Z,22.47
2023-05-15T16:52:13.681Z,12.57
2023-05-15T16:54:41.862Z,13.83
2023-05-15T16:57:08.470Z,11.90
2023-05-15T16:59:35.155Z,12.40
2023-05-15T17:02:01.952Z,13.27
2023-05-15T17:04:30.762Z,10.23
2023-05-15T17:06:58.983Z,12.17
2023-05-15T17:09:25.598Z,10.93
2023-05-15T17:11:52.252Z,9.40
2023-05-15T17:14:18.876Z,11.60
2023-05-15T17:16:45.664Z,11.63
2023-05-15T17:19:12.438Z,9.50
2023-05-15T17:21:39.150Z,10.87
2023-05-15T17:24:05.885Z,12.10
2023-05-15T17:26:32.485Z,12.10
2023-05-15T17:28:59.114Z,14.83
2023-05-15T17:31:26.712Z,13.87
2023-05-15T17:33:53.420Z,12.97
2023-05-15T17:36:20.035Z,12.83
2023-05-15T17:38:46.618Z,12.97
2023-05-15T17:41:13.282Z,15.10
2023-05-15T17:43:39.927Z,17.60
2023-05-15T17:46:06.517Z,16.00
2023-05-15T17:48:33.486Z,12.60
2023-05-15T17:51:00.325Z,12.30
2023-05-15T17:53:26.955Z,12.90
2023-05-15T17:55:53.670Z,10.83
2023-05-15T17:58:21.147Z,9.87
2023-05-15T18:00:47.845Z,13.90
2023-05-15T18:03:14.533Z,14.43
2023-05-15T18:05:41.174Z,18.00
2023-05-15T18:08:07.825Z,15.03
2023-05-15T18:10:34.405Z,13.03
2023-05-15T18:13:00.979Z,14.03
2023-05-15T18:15:27.751Z,15.73
2023-05-15T18:17:54.644Z,13.63
2023-05-15T18:20:21.309Z,14.83
2023-05-15T18:22:48.018Z,14.40
2023-05-15T18:25:14.784Z,15.60
2023-05-15T18:27:41.537Z,16.20
2023-05-15T18:30:08.627Z,15.70
2023-05-15T18:32:35.438Z,15.37
2023-05-15T18:35:02.630Z,17.20
2023-05-15T18:37:29.236Z,16.27
2023-05-15T18:39:56.957Z,14.70
2023-05-15T18:42:25.224Z,15.80
2023-05-15T18:44:52.180Z,17.57
2023-05-15T18:47:18.887Z,15.77
2023-05-15T18:49:46.220Z,17.43
2023-05-15T18:52:12.917Z,18.27
2023-05-15T18:54:41.591Z,16.90
2023-05-15T18:57:08.315Z,16.10
2023-05-15T18:59:34.968Z,15.20
2023-05-15T19:02:01.711Z,19.47
2023-05-15T19:04:28.389Z,15.17
2023-05-15T19:06:54.955Z,14.43
2023-05-15T19:09:21.532Z,14.40
2023-05-15T19:11:51.605Z,14.73
2023-05-15T19:14:18.588Z,16.50
2023-05-15T19:16:46.080Z,13.90
2023-05-15T19:19:13.250Z,14.73
2023-05-15T19:21:40.037Z,17.63
2023-05-15T19:24:06.913Z,17.03
2023-05-15T19:26:33.726Z,16.23
2023-05-15T19:29:00.330Z,17.37
2023-05-15T19:31:31.562Z,16.93
2023-05-15T19:33:59.737Z,19.00
2023-05-15T19:36:26.704Z,21.83
2023-05-15T19:38:53.388Z,22.60
2023-05-15T19:41:20.015Z,20.10
2023-05-15T19:43:46.943Z,24.27
2023-05-15T19:46:13.862Z,17.00
2023-05-15T19:48:40.570Z,20.10
2023-05-15T19:51:07.288Z,23.27
2023-05-15T19:53:34.225Z,18.67
2023-05-15T19:56:00.960Z,17.07
2023-05-15T19:58:27.537Z,19.87
2023-05-15T20:00:54.653Z,19.07
2023-05-15T20:03:22.015Z,16.10
2023-05-15T20:05:49.269Z,17.07
2023-05-15T20:08:17.182Z,16.73
2023-05-15T20:10:44.423Z,17.10
2023-05-15T20:13:11.616Z,17.70
2023-05-15T20:15:39.934Z,15.20
2023-05-15T20:18:07.358Z,15.07
2023-05-15T20:20:35.646Z,14.53
2023-05-15T20:23:02.290Z,15.63
2023-05-15T20:25:30.111Z,16.20
2023-05-15T20:27:58.517Z,16.23
2023-05-15T20:30:26.864Z,16.57
2023-05-15T20:32:53.737Z,19.00
2023-05-15T20:35:20.765Z,20.20
2023-05-15T20:37:47.421Z,18.50
2023-05-15T20:40:15.709Z,16.43
2023-05-15T20:42:42.538Z,18.53
2023-05-15T20:45:09.943Z,15.90
2023-05-15T20:47:36.559Z,21.57
2023-05-15T20:50:03.603Z,19.67
2023-05-15T20:52:30.599Z,19.00
2023-05-15T20:54:57.337Z,18.27
2023-05-15T20:57:23.976Z,27.10
2023-05-15T20:59:50.574Z,15.60
2023-05-15T21:02:17.591Z,17.10
2023-05-15T21:04:44.612Z,19.83
2023-05-15T21:07:11.568Z,14.43
2023-05-15T21:09:38.165Z,13.43
2023-05-15T21:12:05.189Z,13.70
2023-05-15T21:14:31.871Z,17.90
2023-05-15T21:16:58.515Z,16.17
2023-05-15T21:19:25.376Z,10.97
2023-05-15T21:21:52.085Z,11.70
2023-05-15T21:24:18.803Z,13.20
2023-05-15T21:26:45.756Z,8.40
2023-05-15T21:29:12.335Z,8.20
2023-05-15T21:31:38.981Z,9.07
2023-05-15T21:34:05.656Z,8.03
2023-05-15T21:36:32.273Z,13.63
2023-05-15T21:38:58.831Z,10.30
2023-05-15T21:41:26.004Z,10.30
2023-05-15T21:43:52.617Z,13.27
2023-05-15T21:46:19.333Z,10.90
2023-05-15T21:48:46.530Z,12.90
2023-05-15T21:51:13.188Z,11.77
2023-05-15T21:53:39.831Z,14.73
2023-05-15T21:56:07.214Z,15.07
2023-05-15T21:58:33.755Z,13.47
2023-05-15T22:01:00.530Z,14.13
2023-05-15T22:03:27.502Z,18.63
2023-05-15T22:05:54.186Z,18.57
2023-05-15T22:08:21.325Z,15.87
2023-05-15T22:10:48.780Z,18.57
2023-05-15T22:13:15.503Z,19.27
2023-05-15T22:15:42.262Z,18.60
2023-05-15T22:18:09.427Z,20.67
2023-05-15T22:20:36.181Z,21.60
2023-05-15T22:23:02.849Z,22.37
2023-05-15T22:25:29.458Z,21.10
2023-05-15T22:27:56.369Z,24.53
2023-05-15T22:30:22.975Z,24.73
2023-05-15T22:32:49.592Z,24.00
2023-05-15T22:35:16.315Z,22.77
2023-05-15T22:37:45.227Z,25.27
2023-05-15T22:40:12.380Z,24.17
2023-05-15T22:42:39.138Z,23.47
2023-05-15T22:45:06.404Z,22.20
2023-05-15T22:47:33.710Z,22.03
2023-05-15T22:50:00.788Z,23.63
2023-05-15T22:52:27.472Z,25.00
2023-05-15T22:54:54.165Z,21.47
2023-05-15T22:57:20.802Z,23.37
2023-05-15T22:59:47.426Z,24.87
2023-05-15T23:02:14.050Z,21.67
2023-05-15T23:04:40.846Z,23.40
2023-05-15T23:07:07.588Z,23.67
2023-05-15T23:09:34.168Z,21.40
2023-05-15T23:12:00.947Z,20.50
2023-05-15T23:14:27.502Z,20.40
2023-05-15T23:16:54.113Z,20.10
2023-05-15T23:19:20.868Z,24.03
2023-05-15T23:21:47.575Z,16.90
2023-05-15T23:24:14.266Z,14.73
2023-05-15T23:26:40.867Z,15.90
2023-05-15T23:29:07.425Z,16.27
2023-05-15T23:31:34.168Z,15.20
2023-05-15T23:34:01.014Z,13.90
2023-05-15T23:36:27.618Z,15.90
2023-05-15T23:38:54.261Z,13.70
2023-05-15T23:41:22.695Z,12.27
2023-05-15T23:43:52.142Z,14.87
2023-05-15T23:46:18.853Z,12.33
2023-05-15T23:48:45.755Z,13.00
2023-05-15T23:51:12.484Z,12.80
2023-05-15T23:53:39.063Z,10.47
2023-05-15T23:56:06.449Z,10.13
2023-05-15T23:58:33.289Z,11.33
